sensor_id;sensor_type;location;lat;lon;timestamp;P1;durP1;ratioP1;P2;durP2;ratioP2
21743;SDS011;11034;48.556;9.342;2023-05-24T00:00:43;7.30;;;4.47;;
21743;SDS011;11034;48.556;9.342;2023-05-24T00:03:12;5.57;;;4.35;;
21743;SDS011;11034;48.556;9.342;2023-05-24T00:05:42;6.15;;;4.40;;
21743;SDS011;11034;48.556;9.342;2023-05-24T00:08:12;7.05;;;4.72;;
21743;SDS011;11034;48.556;9.342;2023-05-24T00:10:41;7.38;;;4.40;;
21743;SDS011;11034;48.556;9.342;2023-05-24T00:13:09;6.97;;;5.10;;
21743;SDS011;11034;48.556;9.342;2023-05-24T00:15:38;8.35;;;4.85;;
21743;SDS011;11034;48.556;9.342;2023-05-24T00:18:09;6.07;;;5.00;;
21743;SDS011;11034;48.556;9.342;2023-05-24T00:20:43;6.32;;;4.65;;
21743;SDS011;11034;48.556;9.342;2023-05-24T00:23:15;5.40;;;4.47;;
21743;SDS011;11034;48.556;9.342;2023-05-24T00:25:43;6.95;;;5.10;;
21743;SDS011;11034;48.556;9.342;2023-05-24T00:28:11;8.23;;;4.55;;
21743;SDS011;11034;48.556;9.342;2023-05-24T00:30:39;8.00;;;5.15;;
21743;SDS011;11034;48.556;9.342;2023-05-24T00:33:08;5.82;;;4.60;;
21743;SDS011;11034;48.556;9.342;2023-05-24T00:35:36;8.50;;;5.60;;
21743;SDS011;11034;48.556;9.342;2023-05-24T00:38:05;6.45;;;5.07;;
21743;SDS011;11034;48.556;9.342;2023-05-24T00:40:33;6.32;;;4.72;;
21743;SDS011;11034;48.556;9.342;2023-05-24T00:43:01;7.35;;;5.60;;
21743;SDS011;11034;48.556;9.342;2023-05-24T00:45:29;7.03;;;5.03;;
21743;SDS011;11034;48.556;9.342;2023-05-24T00:47:59;7.43;;;5.22;;
21743;SDS011;11034;48.556;9.342;2023-05-24T00:50:27;8.73;;;5.25;;
21743;SDS011;11034;48.556;9.342;2023-05-24T00:52:55;11.02;;;5.97;;
21743;SDS011;11034;48.556;9.342;2023-05-24T00:55:28;7.13;;;5.43;;
21743;SDS011;11034;48.556;9.342;2023-05-24T00:57:56;8.00;;;5.75;;
21743;SDS011;11034;48.556;9.342;2023-05-24T01:00:24;12.50;;;5.47;;
21743;SDS011;11034;48.556;9.342;2023-05-24T01:02:53;7.88;;;4.88;;
21743;SDS011;11034;48.556;9.342;2023-05-24T01:05:22;11.35;;;5.10;;
21743;SDS011;11034;48.556;9.342;2023-05-24T01:07:53;10.25;;;5.07;;
21743;SDS011;11034;48.556;9.342;2023-05-24T01:10:34;8.75;;;4.80;;
21743;SDS011;11034;48.556;9.342;2023-05-24T01:13:11;6.72;;;4.80;;
21743;SDS011;11034;48.556;9.342;2023-05-24T01:15:48;8.15;;;5.00;;
21743;SDS011;11034;48.556;9.342;2023-05-24T01:18:25;7.53;;;4.53;;
21743;SDS011;11034;48.556;9.342;2023-05-24T01:20:59;8.02;;;4.78;;
21743;SDS011;11034;48.556;9.342;2023-05-24T01:23:40;5.78;;;4.25;;
21743;SDS011;11034;48.556;9.342;2023-05-24T01:26:18;5.43;;;3.83;;
21743;SDS011;11034;48.556;9.342;2023-05-24T01:28:56;6.07;;;4.10;;
21743;SDS011;11034;48.556;9.342;2023-05-24T01:31:28;4.57;;;3.78;;
21743;SDS011;11034;48.556;9.342;2023-05-24T01:33:57;6.55;;;4.25;;
21743;SDS011;11034;48.556;9.342;2023-05-24T01:36:25;6.97;;;4.10;;
21743;SDS011;11034;48.556;9.342;2023-05-24T01:38:53;6.40;;;4.05;;
21743;SDS011;11034;48.556;9.342;2023-05-24T01:41:22;6.07;;;3.58;;
21743;SDS011;11034;48.556;9.342;2023-05-24T01:44:03;6.65;;;3.97;;
21743;SDS011;11034;48.556;9.342;2023-05-24T01:46:39;7.40;;;3.60;;
21743;SDS011;11034;48.556;9.342;2023-05-24T01:49:12;6.93;;;4.10;;
21743;SDS011;11034;48.556;9.342;2023-05-24T01:51:47;7.82;;;4.00;;
21743;SDS011;11034;48.556;9.342;2023-05-24T01:54:19;9.02;;;3.92;;
21743;SDS011;11034;48.556;9.342;2023-05-24T01:56:50;6.05;;;3.47;;
21743;SDS011;11034;48.556;9.342;2023-05-24T01:59:22;7.38;;;3.97;;
21743;SDS011;11034;48.556;9.342;2023-05-24T02:01:52;6.53;;;3.45;;
21743;SDS011;11034;48.556;9.342;2023-05-24T02:04:21;6.53;;;3.22;;
21743;SDS011;11034;48.556;9.342;2023-05-24T02:06:49;10.00;;;3.78;;
21743;SDS011;11034;48.556;9.342;2023-05-24T02:09:17;9.43;;;4.00;;
21743;SDS011;11034;48.556;9.342;2023-05-24T02:11:46;7.38;;;3.28;;
21743;SDS011;11034;48.556;9.342;2023-05-24T02:14:14;7.07;;;3.92;;
21743;SDS011;11034;48.556;9.342;2023-05-24T02:16:43;5.88;;;3.65;;
21743;SDS011;11034;48.556;9.342;2023-05-24T02:19:12;6.45;;;3.88;;
21743;SDS011;11034;48.556;9.342;2023-05-24T02:21:40;6.32;;;3.88;;
21743;SDS011;11034;48.556;9.342;2023-05-24T02:24:09;7.22;;;3.63;;
21743;SDS011;11034;48.556;9.342;2023-05-24T02:26:37;15.13;;;4.13;;
21743;SDS011;11034;48.556;9.342;2023-05-24T02:29:06;5.45;;;3.50;;
21743;SDS011;11034;48.556;9.342;2023-05-24T02:31:34;7.00;;;3.97;;
21743;SDS011;11034;48.556;9.342;2023-05-24T02:34:03;7.25;;;3.80;;
21743;SDS011;11034;48.556;9.342;2023-05-24T02:36:31;6.88;;;3.50;;
21743;SDS011;11034;48.556;9.342;2023-05-24T02:39:01;8.07;;;4.32;;
21743;SDS011;11034;48.556;9.342;2023-05-24T02:41:30;9.45;;;4.22;;
21743;SDS011;11034;48.556;9.342;2023-05-24T02:43:58;7.05;;;3.75;;
21743;SDS011;11034;48.556;9.342;2023-05-24T02:46:26;5.47;;;3.47;;
21743;SDS011;11034;48.556;9.342;2023-05-24T02:48:54;7.40;;;3.90;;
21743;SDS011;11034;48.556;9.342;2023-05-24T02:51:26;9.30;;;4.32;;
21743;SDS011;11034;48.556;9.342;2023-05-24T02:53:53;8.73;;;4.22;;
21743;SDS011;11034;48.556;9.342;2023-05-24T02:56:22;6.10;;;3.72;;
21743;SDS011;11034;48.556;9.342;2023-05-24T02:58:52;9.15;;;4.20;;
21743;SDS011;11034;48.556;9.342;2023-05-24T03:01:20;8.65;;;3.80;;
21743;SDS011;11034;48.556;9.342;2023-05-24T03:03:49;10.02;;;4.15;;
21743;SDS011;11034;48.556;9.342;2023-05-24T03:06:17;8.65;;;4.03;;
21743;SDS011;11034;48.556;9.342;2023-05-24T03:08:47;9.95;;;4.25;;
21743;SDS011;11034;48.556;9.342;2023-05-24T03:11:16;9.82;;;4.07;;
21743;SDS011;11034;48.556;9.342;2023-05-24T03:13:47;9.02;;;4.60;;
21743;SDS011;11034;48.556;9.342;2023-05-24T03:16:15;8.25;;;3.95;;
21743;SDS011;11034;48.556;9.342;2023-05-24T03:18:45;9.75;;;4.10;;
21743;SDS011;11034;48.556;9.342;2023-05-24T03:21:15;12.63;;;4.80;;
21743;SDS011;11034;48.556;9.342;2023-05-24T03:23:47;9.00;;;4.30;;
21743;SDS011;11034;48.556;9.342;2023-05-24T03:26:15;7.13;;;3.83;;
21743;SDS011;11034;48.556;9.342;2023-05-24T03:28:44;12.23;;;4.38;;
21743;SDS011;11034;48.556;9.342;2023-05-24T03:31:12;11.05;;;4.20;;
21743;SDS011;11034;48.556;9.342;2023-05-24T03:33:41;9.35;;;4.15;;
21743;SDS011;11034;48.556;9.342;2023-05-24T03:36:10;8.88;;;4.10;;
21743;SDS011;11034;48.556;9.342;2023-05-24T03:38:38;7.13;;;4.53;;
21743;SDS011;11034;48.556;9.342;2023-05-24T03:41:07;11.35;;;4.43;;
21743;SDS011;11034;48.556;9.342;2023-05-24T03:43:35;12.52;;;4.70;;
21743;SDS011;11034;48.556;9.342;2023-05-24T03:46:03;9.73;;;4.63;;
21743;SDS011;11034;48.556;9.342;2023-05-24T03:48:31;10.07;;;4.68;;
21743;SDS011;11034;48.556;9.342;2023-05-24T03:50:59;9.85;;;4.47;;
21743;SDS011;11034;48.556;9.342;2023-05-24T03:53:28;14.30;;;4.78;;
21743;SDS011;11034;48.556;9.342;2023-05-24T03:55:57;10.68;;;4.85;;
21743;SDS011;11034;48.556;9.342;2023-05-24T03:58:26;10.95;;;4.80;;
21743;SDS011;11034;48.556;9.342;2023-05-24T04:00:54;10.90;;;4.63;;
21743;SDS011;11034;48.556;9.342;2023-05-24T04:03:22;11.88;;;4.80;;
21743;SDS011;11034;48.556;9.342;2023-05-24T04:05:51;13.98;;;5.25;;
21743;SDS011;11034;48.556;9.342;2023-05-24T04:08:20;12.77;;;5.15;;
21743;SDS011;11034;48.556;9.342;2023-05-24T04:10:48;12.13;;;4.75;;
21743;SDS011;11034;48.556;9.342;2023-05-24T04:13:16;10.60;;;4.63;;
21743;SDS011;11034;48.556;9.342;2023-05-24T04:15:45;14.60;;;4.93;;
21743;SDS011;11034;48.556;9.342;2023-05-24T04:18:13;12.52;;;4.90;;
21743;SDS011;11034;48.556;9.342;2023-05-24T04:20:42;11.98;;;4.72;;
21743;SDS011;11034;48.556;9.342;2023-05-24T04:23:10;11.38;;;4.43;;
21743;SDS011;11034;48.556;9.342;2023-05-24T04:25:38;10.75;;;4.82;;
21743;SDS011;11034;48.556;9.342;2023-05-24T04:28:07;12.55;;;4.90;;
21743;SDS011;11034;48.556;9.342;2023-05-24T04:30:35;15.20;;;4.88;;
21743;SDS011;11034;48.556;9.342;2023-05-24T04:33:06;10.77;;;4.90;;
21743;SDS011;11034;48.556;9.342;2023-05-24T04:35:34;11.70;;;5.13;;
21743;SDS011;11034;48.556;9.342;2023-05-24T04:38:03;12.93;;;5.55;;
21743;SDS011;11034;48.556;9.342;2023-05-24T04:40:31;12.30;;;4.43;;
21743;SDS011;11034;48.556;9.342;2023-05-24T04:42:59;16.35;;;4.93;;
21743;SDS011;11034;48.556;9.342;2023-05-24T04:45:28;14.70;;;5.25;;
21743;SDS011;11034;48.556;9.342;2023-05-24T04:47:58;9.35;;;5.40;;
21743;SDS011;11034;48.556;9.342;2023-05-24T04:50:30;12.18;;;5.13;;
21743;SDS011;11034;48.556;9.342;2023-05-24T04:53:00;13.52;;;5.00;;
21743;SDS011;11034;48.556;9.342;2023-05-24T04:55:28;14.77;;;5.32;;
21743;SDS011;11034;48.556;9.342;2023-05-24T04:57:56;11.52;;;4.85;;
21743;SDS011;11034;48.556;9.342;2023-05-24T05:00:24;12.88;;;4.82;;
21743;SDS011;11034;48.556;9.342;2023-05-24T05:02:52;10.05;;;5.00;;
21743;SDS011;11034;48.556;9.342;2023-05-24T05:05:21;13.88;;;5.65;;
21743;SDS011;11034;48.556;9.342;2023-05-24T05:07:50;13.68;;;5.07;;
21743;SDS011;11034;48.556;9.342;2023-05-24T05:10:19;12.27;;;4.97;;
21743;SDS011;11034;48.556;9.342;2023-05-24T05:12:49;11.50;;;5.18;;
21743;SDS011;11034;48.556;9.342;2023-05-24T05:15:17;13.43;;;5.50;;
21743;SDS011;11034;48.556;9.342;2023-05-24T05:17:47;10.63;;;4.35;;
21743;SDS011;11034;48.556;9.342;2023-05-24T05:20:16;14.00;;;4.75;;
21743;SDS011;11034;48.556;9.342;2023-05-24T05:22:45;13.10;;;5.70;;
21743;SDS011;11034;48.556;9.342;2023-05-24T05:25:14;9.20;;;4.43;;
21743;SDS011;11034;48.556;9.342;2023-05-24T05:27:43;17.33;;;5.18;;
21743;SDS011;11034;48.556;9.342;2023-05-24T05:30:11;13.23;;;4.95;;
21743;SDS011;11034;48.556;9.342;2023-05-24T05:32:39;14.13;;;5.20;;
21743;SDS011;11034;48.556;9.342;2023-05-24T05:35:07;14.68;;;5.85;;
21743;SDS011;11034;48.556;9.342;2023-05-24T05:37:36;12.98;;;5.40;;
21743;SDS011;11034;48.556;9.342;2023-05-24T05:40:04;15.70;;;4.97;;
21743;SDS011;11034;48.556;9.342;2023-05-24T05:42:34;17.27;;;5.38;;
21743;SDS011;11034;48.556;9.342;2023-05-24T05:45:03;19.65;;;6.10;;
21743;SDS011;11034;48.556;9.342;2023-05-24T05:47:31;15.70;;;5.10;;
21743;SDS011;11034;48.556;9.342;2023-05-24T05:49:59;16.48;;;5.57;;
21743;SDS011;11034;48.556;9.342;2023-05-24T05:52:27;14.05;;;5.25;;
21743;SDS011;11034;48.556;9.342;2023-05-24T05:54:55;11.10;;;5.00;;
21743;SDS011;11034;48.556;9.342;2023-05-24T05:57:25;10.88;;;5.18;;
21743;SDS011;11034;48.556;9.342;2023-05-24T05:59:54;10.40;;;5.38;;
21743;SDS011;11034;48.556;9.342;2023-05-24T06:02:22;14.32;;;5.55;;
21743;SDS011;11034;48.556;9.342;2023-05-24T06:04:51;13.98;;;5.47;;
21743;SDS011;11034;48.556;9.342;2023-05-24T06:07:19;15.70;;;6.00;;
21743;SDS011;11034;48.556;9.342;2023-05-24T06:09:47;15.27;;;5.65;;
21743;SDS011;11034;48.556;9.342;2023-05-24T06:12:15;11.88;;;5.22;;
21743;SDS011;11034;48.556;9.342;2023-05-24T06:14:44;12.32;;;5.35;;
21743;SDS011;11034;48.556;9.342;2023-05-24T06:17:14;15.90;;;5.32;;
21743;SDS011;11034;48.556;9.342;2023-05-24T06:19:44;12.93;;;4.85;;
21743;SDS011;11034;48.556;9.342;2023-05-24T06:22:12;10.10;;;5.07;;
21743;SDS011;11034;48.556;9.342;2023-05-24T06:24:42;13.30;;;5.53;;
21743;SDS011;11034;48.556;9.342;2023-05-24T06:27:10;17.85;;;4.97;;
21743;SDS011;11034;48.556;9.342;2023-05-24T06:29:38;15.07;;;5.55;;
21743;SDS011;11034;48.556;9.342;2023-05-24T06:32:07;14.90;;;5.25;;
21743;SDS011;11034;48.556;9.342;2023-05-24T06:34:36;12.70;;;5.10;;
21743;SDS011;11034;48.556;9.342;2023-05-24T06:37:04;15.88;;;5.40;;
21743;SDS011;11034;48.556;9.342;2023-05-24T06:39:35;14.00;;;5.70;;
21743;SDS011;11034;48.556;9.342;2023-05-24T06:42:03;14.25;;;5.13;;
21743;SDS011;11034;48.556;9.342;2023-05-24T06:44:31;13.32;;;5.18;;
21743;SDS011;11034;48.556;9.342;2023-05-24T06:47:00;14.27;;;5.25;;
21743;SDS011;11034;48.556;9.342;2023-05-24T06:49:28;13.38;;;6.47;;
21743;SDS011;11034;48.556;9.342;2023-05-24T06:51:57;12.50;;;5.03;;
21743;SDS011;11034;48.556;9.342;2023-05-24T06:54:26;13.18;;;5.00;;
21743;SDS011;11034;48.556;9.342;2023-05-24T06:56:54;12.45;;;4.93;;
21743;SDS011;11034;48.556;9.342;2023-05-24T06:59:22;13.60;;;5.00;;
21743;SDS011;11034;48.556;9.342;2023-05-24T07:01:50;14.00;;;4.95;;
21743;SDS011;11034;48.556;9.342;2023-05-24T07:04:25;12.80;;;5.38;;
21743;SDS011;11034;48.556;9.342;2023-05-24T07:06:53;16.38;;;5.97;;
21743;SDS011;11034;48.556;9.342;2023-05-24T07:09:26;10.90;;;5.45;;
21743;SDS011;11034;48.556;9.342;2023-05-24T07:11:54;13.55;;;5.60;;
21743;SDS011;11034;48.556;9.342;2023-05-24T07:14:23;13.70;;;5.18;;
21743;SDS011;11034;48.556;9.342;2023-05-24T07:16:52;14.88;;;5.28;;
21743;SDS011;11034;48.556;9.342;2023-05-24T07:19:23;15.13;;;5.50;;
21743;SDS011;11034;48.556;9.342;2023-05-24T07:21:54;14.50;;;5.07;;
21743;SDS011;11034;48.556;9.342;2023-05-24T07:24:22;13.75;;;5.13;;
21743;SDS011;11034;48.556;9.342;2023-05-24T07:26:52;18.48;;;5.35;;
21743;SDS011;11034;48.556;9.342;2023-05-24T07:29:22;18.23;;;5.68;;
21743;SDS011;11034;48.556;9.342;2023-05-24T07:31:50;17.08;;;6.03;;
21743;SDS011;11034;48.556;9.342;2023-05-24T07:34:18;14.18;;;5.28;;
21743;SDS011;11034;48.556;9.342;2023-05-24T07:36:47;12.70;;;4.75;;
21743;SDS011;11034;48.556;9.342;2023-05-24T07:39:15;20.20;;;5.70;;
21743;SDS011;11034;48.556;9.342;2023-05-24T07:41:45;16.55;;;5.20;;
21743;SDS011;11034;48.556;9.342;2023-05-24T07:44:14;12.55;;;5.43;;
21743;SDS011;11034;48.556;9.342;2023-05-24T07:46:43;17.77;;;5.45;;
21743;SDS011;11034;48.556;9.342;2023-05-24T07:49:11;16.08;;;4.82;;
21743;SDS011;11034;48.556;9.342;2023-05-24T07:51:40;13.82;;;5.10;;
21743;SDS011;11034;48.556;9.342;2023-05-24T07:54:08;10.52;;;4.78;;
21743;SDS011;11034;48.556;9.342;2023-05-24T07:56:36;15.73;;;4.75;;
21743;SDS011;11034;48.556;9.342;2023-05-24T07:59:04;14.63;;;4.85;;
21743;SDS011;11034;48.556;9.342;2023-05-24T08:01:34;14.23;;;4.85;;
21743;SDS011;11034;48.556;9.342;2023-05-24T08:04:03;17.13;;;5.10;;
21743;SDS011;11034;48.556;9.342;2023-05-24T08:06:31;12.75;;;4.65;;
21743;SDS011;11034;48.556;9.342;2023-05-24T08:09:00;14.00;;;4.90;;
21743;SDS011;11034;48.556;9.342;2023-05-24T08:11:29;15.40;;;5.38;;
21743;SDS011;11034;48.556;9.342;2023-05-24T08:13:57;12.90;;;5.18;;
21743;SDS011;11034;48.556;9.342;2023-05-24T08:16:25;16.90;;;5.30;;
21743;SDS011;11034;48.556;9.342;2023-05-24T08:18:55;10.27;;;4.72;;
21743;SDS011;11034;48.556;9.342;2023-05-24T08:21:23;13.35;;;5.28;;
21743;SDS011;11034;48.556;9.342;2023-05-24T08:23:51;16.10;;;5.38;;
21743;SDS011;11034;48.556;9.342;2023-05-24T08:26:19;14.68;;;5.15;;
21743;SDS011;11034;48.556;9.342;2023-05-24T08:28:47;16.20;;;6.07;;
21743;SDS011;11034;48.556;9.342;2023-05-24T08:31:15;14.73;;;5.57;;
21743;SDS011;11034;48.556;9.342;2023-05-24T08:33:44;15.32;;;5.63;;
21743;SDS011;11034;48.556;9.342;2023-05-24T08:36:17;15.82;;;5.65;;
21743;SDS011;11034;48.556;9.342;2023-05-24T08:38:45;14.77;;;5.22;;
21743;SDS011;11034;48.556;9.342;2023-05-24T08:41:13;12.77;;;5.07;;
21743;SDS011;11034;48.556;9.342;2023-05-24T08:43:41;16.98;;;5.15;;
21743;SDS011;11034;48.556;9.342;2023-05-24T08:46:10;12.40;;;5.78;;
21743;SDS011;11034;48.556;9.342;2023-05-24T08:48:41;16.38;;;5.65;;
21743;SDS011;11034;48.556;9.342;2023-05-24T08:51:13;16.65;;;5.10;;
21743;SDS011;11034;48.556;9.342;2023-05-24T08:53:43;15.88;;;5.15;;
21743;SDS011;11034;48.556;9.342;2023-05-24T08:56:15;19.83;;;5.82;;
21743;SDS011;11034;48.556;9.342;2023-05-24T08:58:44;13.23;;;5.35;;
21743;SDS011;11034;48.556;9.342;2023-05-24T09:01:13;12.50;;;5.60;;
21743;SDS011;11034;48.556;9.342;2023-05-24T09:03:43;10.70;;;4.97;;
21743;SDS011;11034;48.556;9.342;2023-05-24T09:06:15;17.73;;;5.90;;
21743;SDS011;11034;48.556;9.342;2023-05-24T09:08:45;14.65;;;5.13;;
21743;SDS011;11034;48.556;9.342;2023-05-24T09:11:17;12.95;;;5.53;;
21743;SDS011;11034;48.556;9.342;2023-05-24T09:13:46;12.65;;;5.38;;
21743;SDS011;11034;48.556;9.342;2023-05-24T09:16:14;15.90;;;5.35;;
21743;SDS011;11034;48.556;9.342;2023-05-24T09:18:43;11.73;;;5.47;;
21743;SDS011;11034;48.556;9.342;2023-05-24T09:21:11;14.57;;;6.10;;
21743;SDS011;11034;48.556;9.342;2023-05-24T09:23:40;15.02;;;5.80;;
21743;SDS011;11034;48.556;9.342;2023-05-24T09:26:09;8.05;;;4.82;;
21743;SDS011;11034;48.556;9.342;2023-05-24T09:28:38;21.38;;;5.78;;
21743;SDS011;11034;48.556;9.342;2023-05-24T09:31:07;16.20;;;6.10;;
21743;SDS011;11034;48.556;9.342;2023-05-24T09:33:35;15.32;;;5.65;;
21743;SDS011;11034;48.556;9.342;2023-05-24T09:36:06;10.32;;;5.03;;
21743;SDS011;11034;48.556;9.342;2023-05-24T09:38:34;13.98;;;5.63;;
21743;SDS011;11034;48.556;9.342;2023-05-24T09:41:05;16.08;;;6.20;;
21743;SDS011;11034;48.556;9.342;2023-05-24T09:43:45;16.15;;;5.90;;
21743;SDS011;11034;48.556;9.342;2023-05-24T09:46:15;16.08;;;5.70;;
21743;SDS011;11034;48.556;9.342;2023-05-24T09:48:54;16.40;;;5.60;;
21743;SDS011;11034;48.556;9.342;2023-05-24T09:51:23;15.85;;;5.70;;
21743;SDS011;11034;48.556;9.342;2023-05-24T09:53:55;16.35;;;4.93;;
21743;SDS011;11034;48.556;9.342;2023-05-24T09:56:23;16.75;;;5.78;;
21743;SDS011;11034;48.556;9.342;2023-05-24T09:58:54;10.55;;;5.20;;
21743;SDS011;11034;48.556;9.342;2023-05-24T10:01:23;13.95;;;5.50;;
21743;SDS011;11034;48.556;9.342;2023-05-24T10:03:52;14.82;;;5.15;;
21743;SDS011;11034;48.556;9.342;2023-05-24T10:06:21;14.35;;;5.25;;
21743;SDS011;11034;48.556;9.342;2023-05-24T10:08:50;13.40;;;5.63;;
21743;SDS011;11034;48.556;9.342;2023-05-24T10:11:20;17.50;;;5.72;;
21743;SDS011;11034;48.556;9.342;2023-05-24T10:13:49;14.23;;;5.72;;
21743;SDS011;11034;48.556;9.342;2023-05-24T10:16:18;18.27;;;5.63;;
21743;SDS011;11034;48.556;9.342;2023-05-24T10:18:47;13.65;;;5.35;;
21743;SDS011;11034;48.556;9.342;2023-05-24T10:21:16;13.60;;;5.88;;
21743;SDS011;11034;48.556;9.342;2023-05-24T10:23:47;17.58;;;5.63;;
21743;SDS011;11034;48.556;9.342;2023-05-24T10:26:18;21.48;;;5.50;;
21743;SDS011;11034;48.556;9.342;2023-05-24T10:28:53;15.63;;;5.45;;
21743;SDS011;11034;48.556;9.342;2023-05-24T10:31:29;15.23;;;5.53;;
21743;SDS011;11034;48.556;9.342;2023-05-24T10:34:00;13.90;;;5.45;;
21743;SDS011;11034;48.556;9.342;2023-05-24T10:36:34;16.23;;;5.70;;
21743;SDS011;11034;48.556;9.342;2023-05-24T10:39:02;14.35;;;5.70;;
21743;SDS011;11034;48.556;9.342;2023-05-24T10:41:37;13.10;;;5.28;;
21743;SDS011;11034;48.556;9.342;2023-05-24T10:44:09;14.77;;;5.32;;
21743;SDS011;11034;48.556;9.342;2023-05-24T10:49:36;13.23;;;5.28;;
21743;SDS011;11034;48.556;9.342;2023-05-24T10:52:08;15.48;;;5.07;;
21743;SDS011;11034;48.556;9.342;2023-05-24T10:54:37;15.18;;;5.35;;
21743;SDS011;11034;48.556;9.342;2023-05-24T10:57:24;15.63;;;5.07;;
21743;SDS011;11034;48.556;9.342;2023-05-24T10:59:55;13.88;;;5.13;;
21743;SDS011;11034;48.556;9.342;2023-05-24T11:02:27;13.13;;;5.00;;
21743;SDS011;11034;48.556;9.342;2023-05-24T11:05:03;15.10;;;5.60;;
21743;SDS011;11034;48.556;9.342;2023-05-24T11:07:32;16.55;;;5.47;;
21743;SDS011;11034;48.556;9.342;2023-05-24T11:10:08;15.65;;;5.22;;
21743;SDS011;11034;48.556;9.342;2023-05-24T11:12:40;15.68;;;5.57;;
21743;SDS011;11034;48.556;9.342;2023-05-24T11:15:10;15.40;;;5.40;;
21743;SDS011;11034;48.556;9.342;2023-05-24T11:20:41;15.18;;;5.15;;
21743;SDS011;11034;48.556;9.342;2023-05-24T11:23:12;16.77;;;4.88;;
21743;SDS011;11034;48.556;9.342;2023-05-24T11:25:41;14.68;;;5.30;;
21743;SDS011;11034;48.556;9.342;2023-05-24T11:28:10;15.68;;;4.97;;
21743;SDS011;11034;48.556;9.342;2023-05-24T11:30:39;14.00;;;5.20;;
21743;SDS011;11034;48.556;9.342;2023-05-24T11:33:15;12.90;;;4.82;;
21743;SDS011;11034;48.556;9.342;2023-05-24T11:35:45;14.20;;;4.68;;
21743;SDS011;11034;48.556;9.342;2023-05-24T11:38:14;16.92;;;5.75;;
21743;SDS011;11034;48.556;9.342;2023-05-24T11:40:43;19.63;;;5.63;;
21743;SDS011;11034;48.556;9.342;2023-05-24T11:43:12;15.00;;;5.50;;
21743;SDS011;11034;48.556;9.342;2023-05-24T11:45:42;18.88;;;6.03;;
21743;SDS011;11034;48.556;9.342;2023-05-24T11:48:11;13.25;;;5.28;;
21743;SDS011;11034;48.556;9.342;2023-05-24T11:50:41;12.00;;;5.18;;
21743;SDS011;11034;48.556;9.342;2023-05-24T11:53:17;16.17;;;5.93;;
21743;SDS011;11034;48.556;9.342;2023-05-24T11:55:46;22.05;;;6.88;;
21743;SDS011;11034;48.556;9.342;2023-05-24T11:58:17;21.65;;;6.30;;
21743;SDS011;11034;48.556;9.342;2023-05-24T12:00:49;16.48;;;5.97;;
21743;SDS011;11034;48.556;9.342;2023-05-24T12:03:17;21.80;;;6.47;;
21743;SDS011;11034;48.556;9.342;2023-05-24T12:05:48;22.42;;;5.85;;
21743;SDS011;11034;48.556;9.342;2023-05-24T12:08:18;15.30;;;5.50;;
21743;SDS011;11034;48.556;9.342;2023-05-24T12:10:47;17.05;;;5.93;;
21743;SDS011;11034;48.556;9.342;2023-05-24T12:13:18;18.10;;;5.55;;
21743;SDS011;11034;48.556;9.342;2023-05-24T12:15:49;16.80;;;5.30;;
21743;SDS011;11034;48.556;9.342;2023-05-24T12:18:22;14.35;;;5.68;;
21743;SDS011;11034;48.556;9.342;2023-05-24T12:20:52;18.88;;;6.13;;
21743;SDS011;11034;48.556;9.342;2023-05-24T12:23:22;14.52;;;5.90;;
21743;SDS011;11034;48.556;9.342;2023-05-24T12:25:56;14.70;;;5.15;;
21743;SDS011;11034;48.556;9.342;2023-05-24T12:28:25;11.57;;;5.05;;
21743;SDS011;11034;48.556;9.342;2023-05-24T12:30:53;17.23;;;6.22;;
21743;SDS011;11034;48.556;9.342;2023-05-24T12:33:22;13.60;;;5.85;;
21743;SDS011;11034;48.556;9.342;2023-05-24T12:35:52;14.82;;;5.82;;
21743;SDS011;11034;48.556;9.342;2023-05-24T12:38:22;14.77;;;5.35;;
21743;SDS011;11034;48.556;9.342;2023-05-24T12:40:51;15.13;;;5.63;;
21743;SDS011;11034;48.556;9.342;2023-05-24T12:43:38;19.40;;;5.75;;
21743;SDS011;11034;48.556;9.342;2023-05-24T12:46:06;14.05;;;5.53;;
21743;SDS011;11034;48.556;9.342;2023-05-24T12:48:34;10.65;;;5.15;;
21743;SDS011;11034;48.556;9.342;2023-05-24T12:51:04;16.17;;;5.35;;
21743;SDS011;11034;48.556;9.342;2023-05-24T12:53:33;14.52;;;5.30;;
21743;SDS011;11034;48.556;9.342;2023-05-24T12:56:01;13.77;;;4.82;;
21743;SDS011;11034;48.556;9.342;2023-05-24T12:58:29;10.85;;;4.78;;
21743;SDS011;11034;48.556;9.342;2023-05-24T13:00:58;12.80;;;5.10;;
21743;SDS011;11034;48.556;9.342;2023-05-24T13:03:26;19.10;;;5.80;;
21743;SDS011;11034;48.556;9.342;2023-05-24T13:05:53;11.30;;;5.07;;
21743;SDS011;11034;48.556;9.342;2023-05-24T13:08:23;11.90;;;4.63;;
21743;SDS011;11034;48.556;9.342;2023-05-24T13:10:53;12.40;;;4.80;;
21743;SDS011;11034;48.556;9.342;2023-05-24T13:13:22;11.10;;;4.55;;
21743;SDS011;11034;48.556;9.342;2023-05-24T13:15:50;17.88;;;4.95;;
21743;SDS011;11034;48.556;9.342;2023-05-24T13:18:18;12.63;;;4.60;;
21743;SDS011;11034;48.556;9.342;2023-05-24T13:20:46;10.98;;;4.55;;
21743;SDS011;11034;48.556;9.342;2023-05-24T13:23:16;10.93;;;4.20;;
21743;SDS011;11034;48.556;9.342;2023-05-24T13:25:46;17.05;;;4.50;;
21743;SDS011;11034;48.556;9.342;2023-05-24T13:28:15;11.50;;;4.60;;
21743;SDS011;11034;48.556;9.342;2023-05-24T13:30:43;11.05;;;5.13;;
21743;SDS011;11034;48.556;9.342;2023-05-24T13:33:11;17.25;;;5.15;;
21743;SDS011;11034;48.556;9.342;2023-05-24T13:35:39;11.23;;;5.22;;
21743;SDS011;11034;48.556;9.342;2023-05-24T13:38:08;13.80;;;4.53;;
21743;SDS011;11034;48.556;9.342;2023-05-24T13:40:36;10.40;;;4.65;;
21743;SDS011;11034;48.556;9.342;2023-05-24T13:43:08;11.43;;;4.18;;
21743;SDS011;11034;48.556;9.342;2023-05-24T13:45:36;15.32;;;5.03;;
21743;SDS011;11034;48.556;9.342;2023-05-24T13:48:04;9.52;;;4.72;;
21743;SDS011;11034;48.556;9.342;2023-05-24T13:50:33;15.25;;;5.00;;
21743;SDS011;11034;48.556;9.342;2023-05-24T13:53:01;12.55;;;4.75;;
21743;SDS011;11034;48.556;9.342;2023-05-24T13:55:31;11.43;;;4.78;;
21743;SDS011;11034;48.556;9.342;2023-05-24T13:58:00;14.05;;;5.07;;
21743;SDS011;11034;48.556;9.342;2023-05-24T14:00:31;14.52;;;4.57;;
21743;SDS011;11034;48.556;9.342;2023-05-24T14:03:01;9.82;;;4.35;;
21743;SDS011;11034;48.556;9.342;2023-05-24T14:05:31;12.07;;;4.35;;
21743;SDS011;11034;48.556;9.342;2023-05-24T14:07:59;8.50;;;4.20;;
21743;SDS011;11034;48.556;9.342;2023-05-24T14:10:32;9.55;;;4.57;;
21743;SDS011;11034;48.556;9.342;2023-05-24T14:13:02;9.70;;;4.75;;
21743;SDS011;11034;48.556;9.342;2023-05-24T14:15:37;14.15;;;4.80;;
21743;SDS011;11034;48.556;9.342;2023-05-24T14:18:06;11.27;;;4.50;;
21743;SDS011;11034;48.556;9.342;2023-05-24T14:20:34;12.38;;;4.72;;
21743;SDS011;11034;48.556;9.342;2023-05-24T14:23:03;10.55;;;4.50;;
21743;SDS011;11034;48.556;9.342;2023-05-24T14:25:33;9.98;;;4.82;;
21743;SDS011;11034;48.556;9.342;2023-05-24T14:28:01;10.85;;;4.40;;
21743;SDS011;11034;48.556;9.342;2023-05-24T14:30:29;11.70;;;4.55;;
21743;SDS011;11034;48.556;9.342;2023-05-24T14:32:59;15.73;;;5.22;;
21743;SDS011;11034;48.556;9.342;2023-05-24T14:35:27;11.73;;;4.93;;
21743;SDS011;11034;48.556;9.342;2023-05-24T14:37:55;12.70;;;4.47;;
21743;SDS011;11034;48.556;9.342;2023-05-24T14:40:23;13.07;;;4.47;;
21743;SDS011;11034;48.556;9.342;2023-05-24T14:42:51;11.38;;;5.03;;
21743;SDS011;11034;48.556;9.342;2023-05-24T14:45:20;14.88;;;5.15;;
21743;SDS011;11034;48.556;9.342;2023-05-24T14:47:48;17.20;;;5.25;;
21743;SDS011;11034;48.556;9.342;2023-05-24T14:50:17;12.18;;;4.30;;
21743;SDS011;11034;48.556;9.342;2023-05-24T14:52:46;10.55;;;4.65;;
21743;SDS011;11034;48.556;9.342;2023-05-24T14:55:14;14.02;;;4.95;;
21743;SDS011;11034;48.556;9.342;2023-05-24T14:57:42;15.50;;;5.07;;